Weather observations for the past three days for
Santa Ynez, Santa Ynez Airport
Imperial (Metric)
Date Time (pdt) Wind (mph) Vis. (mi.) Weather Sky Cond. Temperature (ºF) Relative Humidity Wind Chill (°F) Heat Index (°F) Pressure Precipitation (in)
Air Dwpt 6 hour altimeter (in) sea level (mb) 1 hr 3 hr 6 hr
Max. Min.
08 10:15 Vrbl 5 10.00 Overcast OVC011 57.2 53.6 88% 30.04 0.0
08 09:55 Calm 10.00 Overcast OVC008 57.2 53.6 88% 30.04 0.0
08 09:35 Calm 10.00 Overcast OVC005 53.6 53.6 100% 30.05 0.0
08 09:15 Calm 7.00 Overcast OVC004 53.6 53.6 100% 30.05 0.0
08 08:55 Calm 6.00 Fog/Mist OVC004 53.6 53.6 100% 30.05 0.0
08 08:35 Calm 5.00 Fog/Mist OVC004 51.8 51.8 100% 30.05 0.0
08 08:15 Calm 3.00 Fog/Mist OVC003 51.8 51.8 100% 30.05 0.0
08 07:55 E 5 3.00 Fog/Mist OVC003 51.8 51.8 100% 30.05 0.0
08 07:35 Calm 2.00 Fog/Mist OVC003 51.8 51.8 100% 30.05 0.0
08 07:15 NW 3 3.00 Fog/Mist OVC003 51.8 51.8 100% 30.05 0.0
08 06:55 Calm 2.00 Fog/Mist OVC003 51.8 51.8 100% 30.05 0.0
08 06:15 Calm 2.00 Fog/Mist OVC003 51.8 51.8 100% 30.04 0.0
08 05:35 Calm 2.00 Fog/Mist OVC003 51.8 51.8 100% 30.03 0.0
08 05:15 Calm 2.50 Fog/Mist OVC003 51.8 51.8 100% 30.03 0.0
08 04:55 Calm 3.00 Fog/Mist OVC003 51.8 51.8 100% 30.03 0.0
08 04:35 Calm 3.00 Fog/Mist OVC003 51.8 51.8 100% 30.03 0.0
08 04:15 Calm 3.00 Fog/Mist OVC003 51.8 51.8 100% 30.02 0.0
08 03:55 Calm 2.50 Fog/Mist OVC003 51.8 51.8 100% 30.03 0.0
08 03:35 Calm 2.00 Fog/Mist OVC003 51.8 51.8 100% 30.03 0.0
08 03:15 Calm 1.50 Fog/Mist OVC003 51.8 51.8 100% 30.03 0.0
08 02:55 NW 3 2.00 Fog/Mist OVC003 51.8 51.8 100% 30.03 0.0
08 02:35 Calm 1.75 Fog/Mist OVC003 51.8 51.8 100% 30.03 0.0
08 02:15 W 3 1.75 Fog/Mist OVC003 51.8 51.8 100% 30.03 0.0
08 01:55 Calm 1.25 Fog/Mist OVC003 51.8 51.8 100% 30.03 0.0
08 01:35 Calm 0.50 Fog OVC002 51.8 51.8 100% 30.03 0.0
08 01:15 SW 3 0.15 Fog OVC002 51.8 51.8 100% 30.03 0.0
08 00:35 Calm 6.00 Fog/Mist SCT003 50 50 100% 30.03 0.0
08 00:15 Calm 7.00 A Few Clouds FEW003 51.8 51.8 100% 30.03 0.0
07 23:55 Calm 7.00 A Few Clouds FEW003 FEW018 FEW028 51.8 51.8 100% 30.03 0.0
07 23:35 Calm 7.00 Mostly Cloudy FEW003 SCT022 BKN028 51.8 51.8 100% 30.03 0.0
07 22:55 Calm 8.00 Overcast BKN020 BKN025 OVC029 53.6 53.6 100% 30.03 0.0
07 22:35 Calm 9.00 Overcast BKN019 OVC024 53.6 53.6 100% 30.03 0.0
07 22:15 Calm 9.00 Mostly Cloudy BKN020 BKN026 53.6 53.6 100% 30.03 0.0
07 21:55 SW 3 10.00 Mostly Cloudy BKN018 BKN023 BKN027 53.6 53.6 100% 30.03 0.0
07 21:35 Calm 10.00 Mostly Cloudy BKN018 BKN022 53.6 53.6 100% 30.03 0.0
07 21:15 Calm 10.00 Mostly Cloudy BKN018 55.4 53.6 94% 30.03 0.0
07 20:55 W 6 10.00 Partly Cloudy SCT019 55.4 53.6 94% 30.02 0.0
07 20:35 SW 5 10.00 Partly Cloudy SCT018 SCT028 55.4 53.6 94% 30.02 0.0
07 19:55 W 8 G 14 10.00 Fair CLR 57.2 53.6 88% 30 0.0
07 19:35 W 7 G 14 10.00 Fair CLR 59 53.6 82% 30 0.0
07 19:15 W 8 10.00 Fair CLR 60.8 55.4 83% 29.99 0.0
07 18:55 W 9 10.00 Fair CLR 62.6 55.4 77% 29.98 0.0
07 18:35 W 10 G 16 10.00 Fair CLR 64.4 55.4 73% 29.98 0.0
07 18:15 W 13 10.00 Fair CLR 66.2 55.4 68% 29.97 0.0
07 17:55 W 12 10.00 Fair CLR 68 55.4 64% 29.97 0.0
07 17:35 W 12 G 18 10.00 Fair CLR 69.8 55.4 60% 29.97 0.0
07 17:15 W 14 10.00 Fair CLR 71.6 55.4 57% 29.97 0.0
07 16:55 W 13 10.00 Fair CLR 71.6 55.4 57% 29.97 0.0
07 16:35 W 13 10.00 Fair CLR 73.4 55.4 53% 29.96 0.0
07 16:15 W 10 10.00 Fair CLR 75.2 57.2 54% 78 29.96 0.0
07 15:55 W 10 10.00 Fair CLR 77 57.2 51% 79 29.96 0.0
07 15:35 W 13 10.00 Fair CLR 75.2 55.4 50% 78 29.96 0.0
07 15:15 W 15 10.00 Fair CLR 77 57.2 51% 79 29.97 0.0
07 14:55 W 15 10.00 Fair CLR 77 57.2 51% 79 29.97 0.0
07 14:35 W 15 10.00 Fair CLR 77 57.2 51% 79 29.97 0.0
07 14:15 W 14 10.00 Fair CLR 78.8 57.2 48% 80 29.97 0.0
07 13:55 W 12 10.00 Fair CLR 78.8 57.2 48% 80 29.98 0.0
07 13:35 W 10 10.00 Fair CLR 78.8 57.2 48% 80 29.98 0.0
07 13:15 W 12 10.00 Fair CLR 78.8 57.2 48% 80 29.99 0.0
07 12:35 SW 6 10.00 Fair CLR 77 55.4 47% 79 30 0.0
07 12:15 W 7 10.00 Fair CLR 75.2 53.6 47% 78 30.01 0.0
07 11:55 SW 7 10.00 Fair CLR 71.6 55.4 57% 30.01 0.0
07 11:35 Vrbl 5 10.00 Fair CLR 69.8 55.4 60% 30.02 0.0
07 11:15 W 7 G 13 8.00 Fair CLR 68 55.4 64% 30.02 0.0
07 10:55 Vrbl 3 10.00 Fair CLR 64.4 55.4 73% 30.02 0.0
07 10:15 Vrbl 5 10.00 Fair CLR 60.8 53.6 77% 30.03 0.0
07 09:55 Vrbl 3 10.00 Fair CLR 59 53.6 82% 30.03 0.0
07 09:35 Calm 10.00 Mostly Cloudy SCT006 BKN009 59 53.6 82% 30.04 0.0
07 08:55 Calm 4.00 Fog/Mist OVC003 51.8 51.8 100% 30.05 0.0
07 08:35 Calm 1.50 Fog/Mist OVC003 51.8 51.8 100% 30.05 0.0
07 08:15 Calm 0.25 Fog OVC003 51.8 51.8 100% 30.05 0.0
07 07:55 Calm 0.50 Fog OVC003 51.8 51.8 100% 30.04 0.0
07 07:35 Calm 0.25 Fog OVC003 50 50 100% 30.04 0.0
07 06:55 N 3 0.25 Fog OVC003 50 50 100% 30.04 0.0
07 06:15 Calm 0.25 Fog OVC003 51.8 51.8 100% 30.02 0.0
07 05:55 Calm 0.75 Fog/Mist OVC003 51.8 51.8 100% 30.02 0.0
07 05:35 Calm 0.75 Fog/Mist OVC003 51.8 51.8 100% 30.02 0.0
07 05:15 Calm 2.00 Fog/Mist OVC003 51.8 51.8 100% 30.03 0.0
07 04:55 Calm 5.00 Fog/Mist OVC003 51.8 51.8 100% 30.03 0.0
07 04:35 Calm 6.00 Fog/Mist OVC003 51.8 51.8 100% 30.03 0.0
07 03:55 Calm 9.00 Overcast OVC004 53.6 53.6 100% 30.03 0.0
07 03:35 Calm 8.00 Overcast OVC004 51.8 51.8 100% 30.04 0.0
07 03:15 Calm 8.00 Overcast OVC005 51.8 51.8 100% 30.04 0.0
07 02:55 Calm 9.00 Overcast OVC004 51.8 51.8 100% 30.04 0.0
07 02:35 Calm 9.00 Overcast OVC004 51.8 51.8 100% 30.05 0.0
07 02:15 Calm 10.00 Overcast OVC004 53.6 51.8 94% 30.05 0.0
07 01:55 Calm 10.00 Overcast OVC004 51.8 51.8 100% 30.06 0.0
07 01:35 Calm 10.00 Overcast OVC005 51.8 51.8 100% 30.07 0.0
07 01:15 NE 3 6.00 Fog/Mist OVC006 51.8 51.8 100% 30.07 0.0
07 00:55 Calm 10.00 Overcast OVC006 53.6 53.6 100% 30.07 0.0
07 00:35 NW 3 10.00 Overcast OVC007 53.6 53.6 100% 30.07 0.0
07 00:15 NW 5 10.00 Overcast OVC008 53.6 53.6 100% 30.07 0.0
06 23:55 W 5 10.00 Overcast OVC009 53.6 53.6 100% 30.07 0.0
06 23:35 W 6 10.00 Overcast OVC010 53.6 51.8 94% 30.08 0.0
06 23:15 Calm 10.00 Overcast OVC011 53.6 53.6 100% 30.08 0.0
06 22:55 Calm 10.00 Overcast BKN011 OVC019 53.6 53.6 100% 30.08 0.0
06 22:35 NW 5 10.00 Mostly Cloudy BKN011 53.6 53.6 100% 30.08 0.0
06 22:15 SW 3 10.00 Fair CLR 53.6 51.8 94% 30.08 0.0
06 21:35 W 7 10.00 A Few Clouds FEW036 55.4 53.6 94% 30.08 0.0
06 21:15 W 7 10.00 A Few Clouds FEW037 55.4 53.6 94% 30.08 0.0
06 20:55 W 5 10.00 Fair CLR 57.2 53.6 88% 30.07 0.0
06 20:35 SW 6 10.00 Fair CLR 57.2 53.6 88% 30.06 0.0
06 20:15 W 6 10.00 Fair CLR 59 53.6 82% 30.06 0.0
06 19:55 SW 7 10.00 Fair CLR 59 53.6 82% 30.05 0.0
06 19:35 W 6 G 12 10.00 Fair CLR 60.8 53.6 77% 30.05 0.0
06 18:55 W 10 10.00 Fair CLR 64.4 53.6 68% 30.04 0.0
06 18:35 W 13 G 18 10.00 Fair CLR 66.2 53.6 64% 30.03 0.0
06 18:15 W 14 10.00 Fair CLR 66.2 53.6 64% 30.03 0.0
06 17:55 W 14 10.00 Fair CLR 68 53.6 60% 30.03 0.0
06 17:35 W 13 10.00 Fair CLR 69.8 53.6 57% 30.02 0.0
06 17:15 SW 13 G 21 10.00 Fair CLR 69.8 53.6 57% 30.02 0.0
06 16:55 SW 15 10.00 Fair CLR 69.8 51.8 53% 30.02 0.0
06 16:35 W 16 10.00 Fair CLR 71.6 51.8 50% 30.02 0.0
06 16:15 W 15 G 21 10.00 Fair CLR 71.6 53.6 53% 30.02 0.0
06 15:55 SW 14 G 21 10.00 Fair CLR 71.6 53.6 53% 30.02 0.0
06 15:35 SW 10 G 21 10.00 Fair CLR 71.6 53.6 53% 30.02 0.0
06 15:15 W 15 G 22 10.00 Fair CLR 71.6 53.6 53% 30.03 0.0
06 14:55 W 15 G 22 10.00 Fair CLR 71.6 51.8 50% 30.04 0.0
06 14:35 W 18 10.00 Fair CLR 71.6 51.8 50% 30.04 0.0
06 14:15 W 16 G 23 10.00 Fair CLR 71.6 51.8 50% 30.04 0.0
06 13:55 W 16 G 22 10.00 Fair CLR 73.4 51.8 47% 30.04 0.0
06 13:35 W 15 G 22 10.00 Fair CLR 73.4 51.8 47% 30.04 0.0
06 13:15 W 16 10.00 Fair CLR 73.4 53.6 50% 30.04 0.0
06 12:55 W 13 10.00 Fair CLR 75.2 51.8 44% 78 30.04 0.0
06 12:35 W 10 10.00 Fair CLR 75.2 51.8 44% 78 30.04 0.0
06 12:15 W 7 10.00 Fair CLR 71.6 51.8 50% 30.05 0.0
06 11:55 Calm 10.00 Fair CLR 69.8 51.8 53% 30.06 0.0
06 11:35 Vrbl 6 10.00 Fair CLR 69.8 50 50% 30.07 0.0
06 11:15 Vrbl 7 8.00 Light Rain CLR 68 50 53% 30.08 0.0
06 10:55 Vrbl 3 10.00 Fair CLR 68 48.2 49% 30.08 0.0
06 10:35 W 7 10.00 Fair CLR 66.2 50 56% 30.08 0.0
06 10:15 SW 6 10.00 Fair CLR 64.4 51.8 64% 30.08 0.0
06 09:55 Vrbl 5 10.00 Fair CLR 62.6 51.8 68% 30.08 0.0
06 09:35 S 6 10.00 Fair CLR 60.8 51.8 72% 30.08 0.0
06 09:15 SW 6 2.50 Fair with Haze CLR 59 51.8 77% 30.08 0.0
06 08:55 Calm 10.00 Fair CLR 57.2 51.8 82% 30.08 0.0
06 08:35 W 5 10.00 Fair CLR 57.2 50 77% 30.08 0.0
06 08:15 Calm 10.00 Fair CLR 55.4 50 82% 30.09 0.0
06 07:55 Calm 10.00 A Few Clouds FEW012 55.4 50 82% 30.09 0.0
06 07:35 Calm 7.00 Mostly Cloudy BKN011 53.6 50 88% 30.08 0.0
06 07:15 Calm 8.00 Overcast OVC011 53.6 50 88% 30.08 0.0
06 06:55 Calm 10.00 Overcast OVC011 53.6 50 88% 30.08 0.0
06 06:35 E 5 10.00 Overcast OVC011 51.8 50 94% 30.07 0.0
06 06:15 Calm 10.00 Overcast OVC012 51.8 50 94% 30.07 0.0
06 05:55 Calm 10.00 Overcast OVC012 51.8 50 94% 30.06 0.0
06 05:35 Calm 10.00 Overcast OVC012 51.8 50 94% 30.06 0.0
06 05:15 E 5 10.00 Overcast OVC011 51.8 50 94% 30.06 0.0
06 04:35 Calm 10.00 Overcast OVC011 53.6 50 88% 30.07 0.0
06 04:15 E 5 10.00 Overcast OVC011 53.6 50 88% 30.07 0.0
06 03:55 Calm 10.00 Overcast OVC011 53.6 50 88% 30.07 0.0
06 03:35 Calm 10.00 Overcast OVC011 53.6 51.8 94% 30.07 0.0
06 03:15 Calm 10.00 Overcast OVC011 53.6 51.8 94% 30.06 0.0
06 02:55 Calm 10.00 Overcast OVC012 53.6 51.8 94% 30.06 0.0
06 02:35 Calm 10.00 Overcast OVC013 53.6 51.8 94% 30.07 0.0
06 02:15 Calm 10.00 Overcast OVC012 53.6 51.8 94% 30.07 0.0
06 01:55 Calm 10.00 Overcast OVC012 53.6 51.8 94% 30.07 0.0
06 01:35 W 5 10.00 Overcast OVC012 53.6 51.8 94% 30.08 0.0
06 01:15 Calm 10.00 Overcast OVC011 53.6 51.8 94% 30.07 0.0
06 00:55 NW 5 10.00 Overcast OVC010 53.6 51.8 94% 30.08 0.0
06 00:35 Calm 10.00 Overcast OVC010 53.6 51.8 94% 30.08 0.0
06 00:15 Calm 10.00 Overcast OVC011 53.6 51.8 94% 30.07 0.0
05 23:55 Calm 10.00 Overcast OVC011 53.6 50 88% 30.07 0.0
05 23:35 Calm 10.00 Overcast OVC012 53.6 51.8 94% 30.06 0.0
05 23:15 SW 5 10.00 Overcast OVC012 53.6 51.8 94% 30.06 0.0
05 22:55 W 5 10.00 Overcast OVC014 53.6 51.8 94% 30.06 0.0
05 22:35 W 3 10.00 Mostly Cloudy BKN015 51.8 50 94% 30.06 0.0
05 22:15 W 6 10.00 Partly Cloudy SCT016 51.8 50 94% 30.05 0.0
05 21:55 SW 6 10.00 Partly Cloudy SCT017 SCT025 53.6 50 88% 30.05 0.0
05 21:35 W 5 10.00 A Few Clouds FEW019 FEW028 FEW035 53.6 50 88% 30.04 0.0
05 21:15 W 7 10.00 Partly Cloudy FEW019 SCT033 SCT038 53.6 50 88% 30.03 0.0
05 20:55 SW 7 10.00 A Few Clouds FEW037 55.4 50 82% 30.02 0.0
05 20:35 W 6 G 13 10.00 Partly Cloudy SCT075 57.2 50 77% 30.01 0.0
05 20:15 W 10 10.00 Overcast OVC070 59 46.4 63% 30 0.0
05 19:55 NW 8 10.00 Overcast OVC070 59 46.4 63% 29.99 0.0
05 19:35 W 9 G 15 10.00 Overcast OVC070 60.8 46.4 59% 29.98 0.0
05 19:15 W 12 10.00 Overcast OVC070 62.6 48.2 60% 29.97 0.0
05 18:55 NW 12 G 17 10.00 Partly Cloudy FEW055 SCT075 62.6 46.4 56% 29.97 0.0
05 18:35 NW 15 10.00 Mostly Cloudy BKN050 64.4 44.6 49% 29.96 0.0
05 18:15 NW 14 10.00 Mostly Cloudy BKN050 66.2 46.4 49% 29.96 0.0
05 17:55 W 14 10.00 Partly Cloudy FEW050 SCT065 66.2 46.4 49% 29.96 0.0
05 17:35 W 14 10.00 Partly Cloudy SCT065 66.2 44.6 46% 29.95 0.0
05 17:15 NW 14 10.00 Mostly Cloudy BKN060 BKN100 68 46.4 46% 29.95 0.0
05 16:55 NW 12 G 23 10.00 Mostly Cloudy BKN065 BKN075 BKN100 68 44.6 43% 29.94 0.0
05 16:35 NW 12 10.00 Mostly Cloudy SCT070 BKN080 66.2 44.6 46% 29.95 0.0
05 16:15 NW 10 G 18 10.00 Mostly Cloudy BKN065 68 44.6 43% 29.95 0.0
05 15:55 NW 10 G 18 10.00 Partly Cloudy SCT065 SCT075 69.8 44.6 40% 29.95 0.0
05 15:35 N 14 10.00 Mostly Cloudy BKN065 68 44.6 43% 29.96 0.0
05 15:15 NW 15 10.00 Fair CLR 68 44.6 43% 29.96 0.0
05 14:55 NW 16 10.00 Fair CLR 68 44.6 43% 29.96 0.0
05 14:35 NW 13 G 21 10.00 A Few Clouds FEW046 FEW055 FEW075 68 44.6 43% 29.97 0.0
05 14:15 NW 12 G 18 10.00 Mostly Cloudy BKN047 BKN055 BKN065 68 44.6 43% 29.96 0.0
05 13:55 NW 10 G 20 10.00 Mostly Cloudy FEW048 SCT055 BKN075 69.8 44.6 40% 29.96 0.0
05 13:35 NW 13 G 21 10.00 Partly Cloudy FEW046 SCT055 SCT080 69.8 44.6 40% 29.96 0.0
05 13:15 NW 14 G 21 10.00 Partly Cloudy FEW045 SCT065 SCT110 69.8 44.6 40% 29.96 0.0
05 12:55 W 10 G 21 10.00 Mostly Cloudy SCT047 BKN065 69.8 44.6 40% 29.96 0.0
05 12:35 NW 10 G 17 10.00 Partly Cloudy SCT047 SCT055 68 44.6 43% 29.97 0.0
05 12:15 NW 12 G 18 10.00 Fair CLR 68 44.6 43% 29.97 0.0
05 11:55 W 14 G 20 10.00 Fair CLR 68 44.6 43% 29.97 0.0
05 11:35 NW 10 G 17 10.00 Fair CLR 66.2 44.6 46% 29.97 0.0
05 11:15 NW 12 10.00 A Few Clouds FEW060 66.2 44.6 46% 29.97 0.0
05 10:55 NW 13 10.00 Partly Cloudy SCT060 66.2 44.6 46% 29.97 0.0
05 10:35 NW 14 G 21 10.00 A Few Clouds FEW060 64.4 46.4 52% 29.97 0.0
Date Time (pdt) Wind (mph) Vis. (mi.) Weather Sky Cond. Air Dwpt Max. Min. Relative Humidity Wind Chill (°F) Heat Index (°F) altimeter (in) sea level (mb) 1 hr 3 hr 6 hr
6 hour
Temperature (ºF) Pressure Precipitation (in)